KLM1329 EHAM-EPKK
Flight info
| Callsign | KLM1329 |
|---|---|
| Flight time | 1h 36m |
| Altitude | 33000 |
| Route | EDUPO Z739 MISGO DCT BADGO DCT SWALM DCT VELIS DCT OKG DCT PADKA |
| Aircraft | E175/M-SDE3GILORVW/S |
Departure
| Time | 2026-04-17 07:20 |
|---|---|
| Airport | Amsterdam Airport Schiphol (EHAM) |
Arrival
| Time | 2026-04-17 08:56 |
|---|---|
| Airport | Kraków John Paul II International Airport (EPKK) |
| Time | Latitude | Longitude | Altitude | Speed | Heading |
|---|---|---|---|---|---|
| 2026-04-17 07:05 | 52.30892 | 4.77366 | -3 ft | 0 kts | 3° |
| 2026-04-17 07:13 | 52.30870 | 4.77368 | -3 ft | 4 kts | 349° |
| 2026-04-17 07:14 | 52.30849 | 4.77370 | -3 ft | 3 kts | 57° |
| 2026-04-17 07:14 | 52.30842 | 4.77341 | -3 ft | 1 kts | 79° |
| 2026-04-17 07:14 | 52.30842 | 4.77340 | -3 ft | 0 kts | 79° |
| 2026-04-17 07:16 | 52.30842 | 4.77343 | -3 ft | 1 kts | 85° |
| 2026-04-17 07:16 | 52.30840 | 4.77380 | -3 ft | 6 kts | 95° |
| 2026-04-17 07:16 | 52.30835 | 4.77463 | -3 ft | 8 kts | 94° |
| 2026-04-17 07:16 | 52.30834 | 4.77567 | -3 ft | 10 kts | 71° |
| 2026-04-17 07:17 | 52.30896 | 4.77610 | -3 ft | 11 kts | 5° |
| 2026-04-17 07:17 | 52.30983 | 4.77617 | -3 ft | 14 kts | 2° |
| 2026-04-17 07:17 | 52.31216 | 4.77640 | -3 ft | 19 kts | 4° |
| 2026-04-17 07:18 | 52.31309 | 4.77651 | -3 ft | 21 kts | 4° |
| 2026-04-17 07:18 | 52.31462 | 4.77663 | -3 ft | 20 kts | 357° |
| 2026-04-17 07:18 | 52.31613 | 4.77677 | -3 ft | 23 kts | 4° |
| 2026-04-17 07:18 | 52.31783 | 4.77701 | -5 ft | 26 kts | 9° |
| 2026-04-17 07:19 | 52.32008 | 4.77748 | -3 ft | 25 kts | 27° |
| 2026-04-17 07:19 | 52.32100 | 4.77864 | -3 ft | 24 kts | 49° |
| 2026-04-17 07:19 | 52.32111 | 4.78010 | -3 ft | 5 kts | 145° |
| 2026-04-17 07:19 | 52.32069 | 4.78013 | -3 ft | 9 kts | 185° |
| 2026-04-17 07:20 | 52.31752 | 4.77982 | -4 ft | 85 kts | 184° |
| 2026-04-17 07:20 | 52.30915 | 4.77903 | 18 ft | 152 kts | 183° |
| 2026-04-17 07:20 | 52.29857 | 4.77806 | 887 ft | 148 kts | 184° |
| 2026-04-17 07:20 | 52.28812 | 4.77696 | 1780 ft | 158 kts | 186° |
| 2026-04-17 07:21 | 52.27650 | 4.77593 | 2527 ft | 174 kts | 185° |
| 2026-04-17 07:21 | 52.26430 | 4.77519 | 3164 ft | 182 kts | 185° |
| 2026-04-17 07:21 | 52.25164 | 4.77870 | 3740 ft | 196 kts | 150° |
| 2026-04-17 07:21 | 52.24382 | 4.79745 | 4277 ft | 218 kts | 103° |
| 2026-04-17 07:22 | 52.24617 | 4.82234 | 4801 ft | 230 kts | 70° |
| 2026-04-17 07:22 | 52.24956 | 4.84810 | 5359 ft | 239 kts | 89° |
| 2026-04-17 07:22 | 52.24956 | 4.87572 | 5880 ft | 248 kts | 87° |
| 2026-04-17 07:22 | 52.25094 | 4.90445 | 6422 ft | 265 kts | 88° |
| 2026-04-17 07:23 | 52.25141 | 4.93556 | 6907 ft | 280 kts | 91° |
| 2026-04-17 07:23 | 52.25123 | 4.96772 | 7612 ft | 286 kts | 92° |
| 2026-04-17 07:23 | 52.25081 | 5.00046 | 8355 ft | 291 kts | 93° |
| 2026-04-17 07:23 | 52.25023 | 5.03364 | 9151 ft | 295 kts | 94° |
| 2026-04-17 07:24 | 52.24948 | 5.06731 | 9957 ft | 299 kts | 94° |
| 2026-04-17 07:24 | 52.24864 | 5.10166 | 10512 ft | 313 kts | 94° |
| 2026-04-17 07:24 | 52.24768 | 5.13812 | 10930 ft | 329 kts | 94° |
| 2026-04-17 07:24 | 52.24663 | 5.17631 | 11398 ft | 345 kts | 94° |
| 2026-04-17 07:25 | 52.24550 | 5.21616 | 11910 ft | 357 kts | 94° |
| 2026-04-17 07:25 | 52.24282 | 5.25667 | 12616 ft | 361 kts | 107° |
| 2026-04-17 07:25 | 52.23194 | 5.29322 | 13430 ft | 359 kts | 127° |
| 2026-04-17 07:25 | 52.21707 | 5.32621 | 14281 ft | 363 kts | 129° |
| 2026-04-17 07:26 | 52.20221 | 5.35976 | 15127 ft | 367 kts | 129° |
| 2026-04-17 07:26 | 52.18718 | 5.39373 | 15969 ft | 371 kts | 129° |
| 2026-04-17 07:26 | 52.17198 | 5.42800 | 16720 ft | 377 kts | 128° |
| 2026-04-17 07:26 | 52.15645 | 5.46282 | 17397 ft | 383 kts | 129° |
| 2026-04-17 07:27 | 52.14069 | 5.49808 | 18141 ft | 388 kts | 129° |
| 2026-04-17 07:27 | 52.12468 | 5.53371 | 18833 ft | 393 kts | 129° |
| 2026-04-17 07:27 | 52.10840 | 5.56977 | 19492 ft | 398 kts | 129° |
| 2026-04-17 07:27 | 52.09213 | 5.60650 | 20134 ft | 403 kts | 128° |
| 2026-04-17 07:28 | 52.07577 | 5.64382 | 20764 ft | 407 kts | 128° |
| 2026-04-17 07:28 | 52.05922 | 5.68147 | 21339 ft | 411 kts | 128° |
| 2026-04-17 07:28 | 52.04092 | 5.71728 | 21886 ft | 413 kts | 135° |
| 2026-04-17 07:28 | 52.02188 | 5.75182 | 22419 ft | 418 kts | 134° |
| 2026-04-17 07:29 | 52.00228 | 5.78787 | 22971 ft | 422 kts | 134° |
| 2026-04-17 07:29 | 51.98307 | 5.82332 | 23513 ft | 426 kts | 134° |
| 2026-04-17 07:29 | 51.96341 | 5.85965 | 24012 ft | 431 kts | 134° |
| 2026-04-17 07:29 | 51.94365 | 5.89648 | 24440 ft | 436 kts | 134° |
| 2026-04-17 07:30 | 51.92366 | 5.93365 | 24928 ft | 439 kts | 134° |
| 2026-04-17 07:30 | 51.90351 | 5.97113 | 25421 ft | 443 kts | 134° |
| 2026-04-17 07:30 | 51.88320 | 6.00884 | 25948 ft | 444 kts | 133° |
| 2026-04-17 07:30 | 51.86293 | 6.04645 | 26573 ft | 443 kts | 133° |
| 2026-04-17 07:31 | 51.84269 | 6.08389 | 27190 ft | 441 kts | 134° |
| 2026-04-17 07:31 | 51.82241 | 6.12111 | 27765 ft | 441 kts | 134° |
| 2026-04-17 07:31 | 51.80212 | 6.15831 | 28318 ft | 441 kts | 134° |
| 2026-04-17 07:31 | 51.78186 | 6.19543 | 28880 ft | 440 kts | 134° |
| 2026-04-17 07:32 | 51.76160 | 6.23249 | 29445 ft | 440 kts | 134° |
| 2026-04-17 07:32 | 51.74135 | 6.26946 | 29992 ft | 440 kts | 134° |
| 2026-04-17 07:32 | 51.72108 | 6.30640 | 30502 ft | 439 kts | 133° |
| 2026-04-17 07:32 | 51.70079 | 6.34329 | 30900 ft | 440 kts | 133° |
| 2026-04-17 07:33 | 51.68048 | 6.38021 | 31346 ft | 440 kts | 133° |
| 2026-04-17 07:33 | 51.66018 | 6.41704 | 31776 ft | 439 kts | 133° |
| 2026-04-17 07:33 | 51.63986 | 6.45386 | 32199 ft | 439 kts | 133° |
| 2026-04-17 07:33 | 51.61957 | 6.49056 | 32634 ft | 438 kts | 133° |
| 2026-04-17 07:34 | 51.59939 | 6.52702 | 33032 ft | 437 kts | 133° |
| 2026-04-17 07:34 | 51.57918 | 6.56351 | 33353 ft | 439 kts | 133° |
| 2026-04-17 07:34 | 51.53786 | 6.63788 | 33320 ft | 450 kts | 133° |
| 2026-04-17 07:35 | 51.49590 | 6.71320 | 33333 ft | 453 kts | 133° |
| 2026-04-17 07:35 | 51.45365 | 6.78882 | 33227 ft | 456 kts | 133° |
| 2026-04-17 07:36 | 51.41194 | 6.86428 | 33229 ft | 456 kts | 128° |
| 2026-04-17 07:36 | 51.39598 | 6.90789 | 33228 ft | 455 kts | 111° |
| 2026-04-17 07:36 | 51.38518 | 6.95561 | 33259 ft | 456 kts | 108° |
| 2026-04-17 07:37 | 51.36449 | 7.05158 | 33214 ft | 456 kts | 108° |
| 2026-04-17 07:37 | 51.34356 | 7.14691 | 33228 ft | 453 kts | 108° |
| 2026-04-17 07:38 | 51.32249 | 7.24201 | 33217 ft | 454 kts | 108° |
| 2026-04-17 07:38 | 51.30126 | 7.33712 | 33221 ft | 454 kts | 108° |
| 2026-04-17 07:39 | 51.27993 | 7.43217 | 33224 ft | 454 kts | 108° |
| 2026-04-17 07:39 | 51.25853 | 7.52703 | 33214 ft | 454 kts | 108° |
| 2026-04-17 07:40 | 51.23705 | 7.62181 | 33222 ft | 454 kts | 109° |
| 2026-04-17 07:40 | 51.21548 | 7.71665 | 33225 ft | 455 kts | 109° |
| 2026-04-17 07:41 | 51.19380 | 7.81153 | 33229 ft | 455 kts | 109° |
| 2026-04-17 07:41 | 51.17210 | 7.90629 | 33225 ft | 455 kts | 109° |
| 2026-04-17 07:42 | 51.15031 | 8.00101 | 33229 ft | 455 kts | 109° |
| 2026-04-17 07:42 | 51.12850 | 8.09558 | 33228 ft | 455 kts | 109° |
| 2026-04-17 07:43 | 51.10650 | 8.19043 | 33221 ft | 457 kts | 109° |
| 2026-04-17 07:43 | 51.07879 | 8.28116 | 33242 ft | 458 kts | 122° |
| 2026-04-17 07:44 | 51.04531 | 8.36731 | 33231 ft | 458 kts | 121° |
| 2026-04-17 07:44 | 51.01207 | 8.45333 | 33233 ft | 457 kts | 121° |
| 2026-04-17 07:45 | 50.97905 | 8.53881 | 33226 ft | 459 kts | 121° |
| 2026-04-17 07:45 | 50.94563 | 8.62517 | 33232 ft | 459 kts | 121° |
| 2026-04-17 07:46 | 50.91219 | 8.71137 | 33230 ft | 459 kts | 121° |
| 2026-04-17 07:46 | 50.87869 | 8.79745 | 33230 ft | 459 kts | 121° |
| 2026-04-17 07:47 | 50.84514 | 8.88341 | 33236 ft | 459 kts | 122° |
| 2026-04-17 07:47 | 50.81157 | 8.96922 | 33228 ft | 459 kts | 122° |
| 2026-04-17 07:48 | 50.77787 | 9.05497 | 33232 ft | 459 kts | 122° |
| 2026-04-17 07:48 | 50.74415 | 9.14056 | 33226 ft | 459 kts | 122° |
| 2026-04-17 07:49 | 50.71335 | 9.22852 | 33237 ft | 458 kts | 108° |
| 2026-04-17 07:49 | 50.69497 | 9.32457 | 33230 ft | 458 kts | 105° |
| 2026-04-17 07:50 | 50.67686 | 9.42018 | 33222 ft | 459 kts | 105° |
| 2026-04-17 07:50 | 50.65839 | 9.51653 | 33227 ft | 459 kts | 105° |
| 2026-04-17 07:51 | 50.63979 | 9.61283 | 33228 ft | 459 kts | 105° |
| 2026-04-17 07:51 | 50.62107 | 9.70911 | 33224 ft | 459 kts | 105° |
| 2026-04-17 07:52 | 50.60231 | 9.80513 | 33228 ft | 459 kts | 105° |
| 2026-04-17 07:52 | 50.58341 | 9.90139 | 33235 ft | 460 kts | 105° |
| 2026-04-17 07:53 | 50.56442 | 9.99757 | 33234 ft | 460 kts | 105° |
| 2026-04-17 07:53 | 50.54539 | 10.09365 | 33234 ft | 460 kts | 105° |
| 2026-04-17 07:54 | 50.52629 | 10.18959 | 33235 ft | 460 kts | 105° |
| 2026-04-17 07:54 | 50.50720 | 10.28502 | 33238 ft | 462 kts | 105° |
| 2026-04-17 07:55 | 50.48792 | 10.38122 | 33245 ft | 462 kts | 105° |
| 2026-04-17 07:55 | 50.46852 | 10.47741 | 33244 ft | 462 kts | 105° |
| 2026-04-17 07:56 | 50.44913 | 10.57354 | 33241 ft | 462 kts | 105° |
| 2026-04-17 07:56 | 50.42976 | 10.66965 | 33248 ft | 462 kts | 105° |
| 2026-04-17 07:57 | 50.41034 | 10.76583 | 33249 ft | 464 kts | 105° |
| 2026-04-17 07:57 | 50.39080 | 10.86212 | 33246 ft | 464 kts | 105° |
| 2026-04-17 07:58 | 50.37119 | 10.95837 | 33250 ft | 463 kts | 105° |
| 2026-04-17 07:58 | 50.35152 | 11.05454 | 33254 ft | 464 kts | 105° |
| 2026-04-17 07:59 | 50.33184 | 11.15038 | 33253 ft | 463 kts | 105° |
| 2026-04-17 07:59 | 50.31203 | 11.24631 | 33251 ft | 463 kts | 105° |
| 2026-04-17 08:00 | 50.29211 | 11.34220 | 33257 ft | 464 kts | 105° |
| 2026-04-17 08:00 | 50.27215 | 11.43810 | 33258 ft | 464 kts | 105° |
| 2026-04-17 08:01 | 50.25215 | 11.53385 | 33259 ft | 464 kts | 105° |
| 2026-04-17 08:01 | 50.23217 | 11.62904 | 33265 ft | 464 kts | 105° |
| 2026-04-17 08:02 | 50.21197 | 11.72494 | 33264 ft | 465 kts | 105° |
| 2026-04-17 08:02 | 50.19168 | 11.82072 | 33266 ft | 465 kts | 105° |
| 2026-04-17 08:03 | 50.17131 | 11.91650 | 33267 ft | 465 kts | 105° |
| 2026-04-17 08:03 | 50.15097 | 12.01226 | 33263 ft | 466 kts | 105° |
| 2026-04-17 08:04 | 50.13043 | 12.10805 | 33261 ft | 466 kts | 105° |
| 2026-04-17 08:04 | 50.10976 | 12.20380 | 33256 ft | 466 kts | 105° |
| 2026-04-17 08:05 | 50.08909 | 12.29883 | 33254 ft | 466 kts | 105° |
| 2026-04-17 08:05 | 50.06893 | 12.39460 | 33253 ft | 464 kts | 100° |
| 2026-04-17 08:06 | 50.06454 | 12.44385 | 33275 ft | 457 kts | 86° |
| 2026-04-17 08:06 | 50.06451 | 12.49311 | 33293 ft | 456 kts | 84° |
| 2026-04-17 08:06 | 50.06477 | 12.57575 | 33260 ft | 455 kts | 84° |
| 2026-04-17 08:07 | 50.06493 | 12.67370 | 33259 ft | 455 kts | 84° |
| 2026-04-17 08:07 | 50.06499 | 12.77223 | 33253 ft | 455 kts | 84° |
| 2026-04-17 08:08 | 50.06495 | 12.87078 | 33263 ft | 456 kts | 84° |
| 2026-04-17 08:08 | 50.06482 | 12.96931 | 33266 ft | 455 kts | 84° |
| 2026-04-17 08:09 | 50.06462 | 13.06777 | 33259 ft | 455 kts | 84° |
| 2026-04-17 08:09 | 50.06436 | 13.16624 | 33251 ft | 455 kts | 84° |
| 2026-04-17 08:10 | 50.06398 | 13.26481 | 33256 ft | 455 kts | 84° |
| 2026-04-17 08:10 | 50.06353 | 13.36339 | 33256 ft | 455 kts | 84° |
| 2026-04-17 08:11 | 50.06307 | 13.46196 | 33254 ft | 456 kts | 84° |
| 2026-04-17 08:11 | 50.06252 | 13.56046 | 33254 ft | 455 kts | 84° |
| 2026-04-17 08:12 | 50.06188 | 13.65869 | 33263 ft | 455 kts | 84° |
| 2026-04-17 08:12 | 50.06119 | 13.75763 | 33251 ft | 456 kts | 84° |
| 2026-04-17 08:13 | 50.06041 | 13.85564 | 33241 ft | 456 kts | 84° |
| 2026-04-17 08:14 | 50.05909 | 14.00386 | 33256 ft | 457 kts | 84° |
| 2026-04-17 08:14 | 50.05809 | 14.10278 | 33264 ft | 457 kts | 84° |
| 2026-04-17 08:15 | 50.05704 | 14.20161 | 33268 ft | 457 kts | 84° |
| 2026-04-17 08:15 | 50.05594 | 14.30050 | 33286 ft | 457 kts | 84° |
| 2026-04-17 08:16 | 50.05471 | 14.39928 | 33269 ft | 457 kts | 84° |
| 2026-04-17 08:16 | 50.05337 | 14.49814 | 33266 ft | 457 kts | 84° |
| 2026-04-17 08:17 | 50.05198 | 14.59695 | 33264 ft | 457 kts | 84° |
| 2026-04-17 08:17 | 50.05056 | 14.69578 | 33267 ft | 457 kts | 84° |
| 2026-04-17 08:18 | 50.04898 | 14.79460 | 33227 ft | 456 kts | 84° |
| 2026-04-17 08:18 | 50.04742 | 14.89305 | 33258 ft | 455 kts | 84° |
| 2026-04-17 08:19 | 50.04570 | 14.99165 | 33249 ft | 456 kts | 84° |
| 2026-04-17 08:19 | 50.04386 | 15.09019 | 33242 ft | 455 kts | 84° |
| 2026-04-17 08:20 | 50.04205 | 15.18868 | 33236 ft | 456 kts | 84° |
| 2026-04-17 08:20 | 50.04004 | 15.28703 | 33243 ft | 452 kts | 84° |
| 2026-04-17 08:21 | 50.03804 | 15.38497 | 33234 ft | 454 kts | 84° |
| 2026-04-17 08:21 | 50.03584 | 15.48305 | 33239 ft | 454 kts | 84° |
| 2026-04-17 08:22 | 50.03364 | 15.58106 | 33238 ft | 454 kts | 84° |
| 2026-04-17 08:22 | 50.03139 | 15.67909 | 33239 ft | 454 kts | 84° |
| 2026-04-17 08:23 | 50.02897 | 15.77655 | 33239 ft | 454 kts | 85° |
| 2026-04-17 08:23 | 50.02652 | 15.87461 | 33241 ft | 454 kts | 85° |
| 2026-04-17 08:24 | 50.02388 | 15.97264 | 33226 ft | 454 kts | 85° |
| 2026-04-17 08:24 | 50.02119 | 16.07073 | 33228 ft | 454 kts | 85° |
| 2026-04-17 08:25 | 50.01856 | 16.16877 | 33249 ft | 454 kts | 85° |
| 2026-04-17 08:25 | 50.01576 | 16.26678 | 33223 ft | 453 kts | 85° |
| 2026-04-17 08:26 | 50.01284 | 16.36471 | 33230 ft | 453 kts | 85° |
| 2026-04-17 08:26 | 50.00999 | 16.46265 | 33228 ft | 453 kts | 85° |
| 2026-04-17 08:27 | 50.00689 | 16.56050 | 33226 ft | 453 kts | 85° |
| 2026-04-17 08:27 | 50.00377 | 16.65840 | 33192 ft | 454 kts | 86° |
| 2026-04-17 08:28 | 50.00058 | 16.75608 | 33222 ft | 452 kts | 86° |
| 2026-04-17 08:28 | 49.99740 | 16.85366 | 33214 ft | 452 kts | 86° |
| 2026-04-17 08:29 | 49.99398 | 16.95137 | 33216 ft | 453 kts | 86° |
| 2026-04-17 08:29 | 49.99047 | 17.04908 | 33225 ft | 453 kts | 86° |
| 2026-04-17 08:30 | 49.98704 | 17.14685 | 33224 ft | 452 kts | 87° |
| 2026-04-17 08:30 | 49.98340 | 17.24445 | 33215 ft | 452 kts | 87° |
| 2026-04-17 08:31 | 49.97958 | 17.34203 | 33223 ft | 452 kts | 87° |
| 2026-04-17 08:31 | 49.97588 | 17.43897 | 33221 ft | 452 kts | 87° |
| 2026-04-17 08:32 | 49.97192 | 17.53658 | 33222 ft | 453 kts | 87° |
| 2026-04-17 08:32 | 49.96789 | 17.63396 | 33229 ft | 451 kts | 88° |
| 2026-04-17 08:33 | 49.96391 | 17.73117 | 33227 ft | 451 kts | 88° |
| 2026-04-17 08:33 | 49.95979 | 17.82813 | 33222 ft | 449 kts | 89° |
| 2026-04-17 08:34 | 49.95561 | 17.92480 | 33234 ft | 449 kts | 89° |
| 2026-04-17 08:34 | 49.95142 | 18.02139 | 33233 ft | 449 kts | 89° |
| 2026-04-17 08:34 | 49.94938 | 18.06974 | 33090 ft | 448 kts | 89° |
| 2026-04-17 08:35 | 49.94726 | 18.11771 | 32729 ft | 440 kts | 89° |
| 2026-04-17 08:35 | 49.94515 | 18.16490 | 32252 ft | 438 kts | 89° |
| 2026-04-17 08:35 | 49.94309 | 18.21211 | 31658 ft | 437 kts | 89° |
| 2026-04-17 08:35 | 49.94089 | 18.25912 | 31047 ft | 436 kts | 89° |
| 2026-04-17 08:36 | 49.93851 | 18.30597 | 30459 ft | 435 kts | 90° |
| 2026-04-17 08:36 | 49.93544 | 18.35265 | 29841 ft | 433 kts | 90° |
| 2026-04-17 08:36 | 49.93295 | 18.39901 | 29306 ft | 430 kts | 89° |
| 2026-04-17 08:36 | 49.93079 | 18.44542 | 28731 ft | 432 kts | 89° |
| 2026-04-17 08:37 | 49.92884 | 18.49197 | 28155 ft | 433 kts | 89° |
| 2026-04-17 08:37 | 49.92706 | 18.53811 | 27591 ft | 434 kts | 89° |
| 2026-04-17 08:37 | 49.92532 | 18.58486 | 26996 ft | 436 kts | 89° |
| 2026-04-17 08:37 | 49.92355 | 18.63190 | 26428 ft | 436 kts | 89° |
| 2026-04-17 08:38 | 49.92188 | 18.67887 | 25853 ft | 437 kts | 89° |
| 2026-04-17 08:38 | 49.92030 | 18.72598 | 25256 ft | 437 kts | 89° |
| 2026-04-17 08:38 | 49.91870 | 18.77290 | 24685 ft | 434 kts | 89° |
| 2026-04-17 08:38 | 49.91692 | 18.81952 | 24118 ft | 430 kts | 91° |
| 2026-04-17 08:39 | 49.91423 | 18.86558 | 23489 ft | 427 kts | 91° |
| 2026-04-17 08:39 | 49.91161 | 18.91095 | 22974 ft | 417 kts | 91° |
| 2026-04-17 08:39 | 49.90903 | 18.95534 | 22439 ft | 408 kts | 91° |
| 2026-04-17 08:39 | 49.90654 | 18.99870 | 21884 ft | 400 kts | 91° |
| 2026-04-17 08:40 | 49.90409 | 19.04121 | 21359 ft | 392 kts | 91° |
| 2026-04-17 08:40 | 49.90167 | 19.08290 | 20848 ft | 385 kts | 91° |
| 2026-04-17 08:40 | 49.89929 | 19.12390 | 20342 ft | 379 kts | 91° |
| 2026-04-17 08:40 | 49.89694 | 19.16425 | 19837 ft | 373 kts | 91° |
| 2026-04-17 08:41 | 49.89461 | 19.20414 | 19349 ft | 368 kts | 91° |
| 2026-04-17 08:41 | 49.89229 | 19.24342 | 18857 ft | 364 kts | 91° |
| 2026-04-17 08:41 | 49.89208 | 19.28200 | 18356 ft | 351 kts | 75° |
| 2026-04-17 08:41 | 49.89967 | 19.31692 | 17951 ft | 335 kts | 60° |
| 2026-04-17 08:42 | 49.90922 | 19.34959 | 17472 ft | 330 kts | 60° |
| 2026-04-17 08:42 | 49.91846 | 19.38192 | 17064 ft | 325 kts | 61° |
| 2026-04-17 08:42 | 49.92748 | 19.41381 | 16630 ft | 321 kts | 61° |
| 2026-04-17 08:42 | 49.93634 | 19.44543 | 16195 ft | 318 kts | 61° |
| 2026-04-17 08:43 | 49.94509 | 19.47690 | 15769 ft | 316 kts | 63° |
| 2026-04-17 08:43 | 49.95124 | 19.50976 | 15371 ft | 317 kts | 72° |
| 2026-04-17 08:43 | 49.95577 | 19.54330 | 14932 ft | 318 kts | 73° |
| 2026-04-17 08:43 | 49.96030 | 19.57680 | 14518 ft | 316 kts | 73° |
| 2026-04-17 08:44 | 49.96483 | 19.61021 | 14098 ft | 316 kts | 73° |
| 2026-04-17 08:44 | 49.96928 | 19.64312 | 13659 ft | 315 kts | 73° |
| 2026-04-17 08:44 | 49.97374 | 19.67616 | 13270 ft | 311 kts | 73° |
| 2026-04-17 08:44 | 49.97818 | 19.70900 | 12863 ft | 309 kts | 73° |
| 2026-04-17 08:45 | 49.98256 | 19.74156 | 12457 ft | 307 kts | 73° |
| 2026-04-17 08:45 | 49.98702 | 19.77445 | 11795 ft | 313 kts | 73° |
| 2026-04-17 08:45 | 49.99144 | 19.80714 | 11424 ft | 307 kts | 73° |
| 2026-04-17 08:45 | 49.99584 | 19.83951 | 11003 ft | 304 kts | 73° |
| 2026-04-17 08:46 | 50.00014 | 19.87148 | 10601 ft | 301 kts | 73° |
| 2026-04-17 08:46 | 50.00443 | 19.90313 | 10199 ft | 298 kts | 73° |
| 2026-04-17 08:46 | 50.00867 | 19.93453 | 9794 ft | 295 kts | 73° |
| 2026-04-17 08:46 | 50.01281 | 19.96524 | 9427 ft | 285 kts | 73° |
| 2026-04-17 08:47 | 50.01679 | 19.99487 | 9087 ft | 275 kts | 74° |
| 2026-04-17 08:47 | 50.02064 | 20.02338 | 8800 ft | 265 kts | 74° |
| 2026-04-17 08:47 | 50.02440 | 20.05105 | 8546 ft | 259 kts | 74° |
| 2026-04-17 08:47 | 50.02810 | 20.07835 | 8338 ft | 257 kts | 74° |
| 2026-04-17 08:48 | 50.03178 | 20.10552 | 8131 ft | 256 kts | 74° |
| 2026-04-17 08:48 | 50.03544 | 20.13257 | 7892 ft | 256 kts | 75° |
| 2026-04-17 08:48 | 50.03908 | 20.15963 | 7643 ft | 256 kts | 74° |
| 2026-04-17 08:48 | 50.04271 | 20.18671 | 7378 ft | 255 kts | 75° |
| 2026-04-17 08:49 | 50.04749 | 20.21292 | 7098 ft | 249 kts | 59° |
| 2026-04-17 08:49 | 50.05874 | 20.23197 | 6827 ft | 237 kts | 23° |
| 2026-04-17 08:49 | 50.07389 | 20.23682 | 6773 ft | 219 kts | 351° |
| 2026-04-17 08:49 | 50.08873 | 20.23297 | 6837 ft | 217 kts | 347° |
| 2026-04-17 08:50 | 50.10363 | 20.22838 | 6531 ft | 219 kts | 346° |
| 2026-04-17 08:50 | 50.11796 | 20.22116 | 6213 ft | 216 kts | 328° |
| 2026-04-17 08:50 | 50.12831 | 20.20479 | 5901 ft | 213 kts | 297° |
| 2026-04-17 08:50 | 50.13160 | 20.18258 | 5625 ft | 212 kts | 270° |
| 2026-04-17 08:51 | 50.12937 | 20.15987 | 5351 ft | 212 kts | 259° |
| 2026-04-17 08:51 | 50.12578 | 20.13753 | 5077 ft | 213 kts | 261° |
| 2026-04-17 08:51 | 50.12297 | 20.11477 | 4793 ft | 215 kts | 262° |
| 2026-04-17 08:51 | 50.12001 | 20.09195 | 4503 ft | 214 kts | 260° |
| 2026-04-17 08:52 | 50.11684 | 20.06980 | 4180 ft | 206 kts | 260° |
| 2026-04-17 08:52 | 50.11395 | 20.04830 | 3867 ft | 199 kts | 261° |
| 2026-04-17 08:52 | 50.11116 | 20.02758 | 3622 ft | 193 kts | 261° |
| 2026-04-17 08:52 | 50.10837 | 20.00739 | 3369 ft | 189 kts | 261° |
| 2026-04-17 08:53 | 50.10658 | 19.99428 | 3180 ft | 185 kts | 261° |
| 2026-04-17 08:53 | 50.10396 | 19.97515 | 2960 ft | 172 kts | 261° |
| 2026-04-17 08:53 | 50.10165 | 19.95837 | 2971 ft | 153 kts | 262° |
| 2026-04-17 08:53 | 50.09943 | 19.94208 | 2677 ft | 149 kts | 261° |
| 2026-04-17 08:54 | 50.09733 | 19.92682 | 2472 ft | 140 kts | 261° |
| 2026-04-17 08:54 | 50.09532 | 19.91220 | 2285 ft | 137 kts | 261° |
| 2026-04-17 08:54 | 50.09331 | 19.89761 | 2098 ft | 138 kts | 260° |
| 2026-04-17 08:54 | 50.09132 | 19.88312 | 1895 ft | 136 kts | 261° |
| 2026-04-17 08:55 | 50.08933 | 19.86864 | 1713 ft | 138 kts | 258° |
| 2026-04-17 08:55 | 50.08733 | 19.85406 | 1516 ft | 136 kts | 262° |
| 2026-04-17 08:55 | 50.08537 | 19.83995 | 1335 ft | 133 kts | 258° |
| 2026-04-17 08:55 | 50.08339 | 19.82580 | 1179 ft | 132 kts | 259° |
| 2026-04-17 08:56 | 50.08148 | 19.81172 | 1017 ft | 135 kts | 258° |
| 2026-04-17 08:56 | 50.07949 | 19.79755 | 809 ft | 129 kts | 259° |
| 2026-04-17 08:56 | 50.07785 | 19.78556 | 799 ft | 90 kts | 255° |
| 2026-04-17 08:56 | 50.07695 | 19.78047 | 796 ft | 14 kts | 213° |
| 2026-04-17 08:57 | 50.07635 | 19.78058 | 797 ft | 9 kts | 152° |
| 2026-04-17 08:57 | 50.07550 | 19.78087 | 797 ft | 14 kts | 174° |
| 2026-04-17 08:57 | 50.07483 | 19.78178 | 798 ft | 14 kts | 96° |
| 2026-04-17 08:57 | 50.07508 | 19.78397 | 798 ft | 47 kts | 78° |
| 2026-04-17 08:58 | 50.07608 | 19.79156 | 798 ft | 69 kts | 76° |
| 2026-04-17 08:58 | 50.07674 | 19.79584 | 798 ft | 19 kts | 72° |
| 2026-04-17 08:58 | 50.07644 | 19.79700 | 798 ft | 13 kts | 163° |
| 2026-04-17 08:58 | 50.07548 | 19.79734 | 798 ft | 15 kts | 168° |
| 2026-04-17 08:59 | 50.07443 | 19.79767 | 798 ft | 15 kts | 168° |
| 2026-04-17 08:59 | 50.07381 | 19.79806 | 798 ft | 8 kts | 112° |
| 2026-04-17 08:59 | 50.07372 | 19.79868 | 798 ft | 1 kts | 149° |
| 2026-04-17 08:59 | 50.07355 | 19.79867 | 798 ft | 6 kts | 181° |
| 2026-04-17 09:00 | 50.07312 | 19.79880 | 798 ft | 5 kts | 167° |
| 2026-04-17 09:00 | 50.07292 | 19.79886 | 798 ft | 1 kts | 168° |
| 2026-04-17 09:00 | 50.07287 | 19.79888 | 798 ft | 0 kts | 168° |